sensor_id;sensor_type;location;lat;lon;timestamp;P1;durP1;ratioP1;P2;durP2;ratioP2
21675;SDS011;10999;51.332;9.458;2023-07-29T00:01:56;4.63;;;1.80;;
21675;SDS011;10999;51.332;9.458;2023-07-29T00:04:23;6.78;;;2.60;;
21675;SDS011;10999;51.332;9.458;2023-07-29T00:06:50;5.78;;;2.03;;
21675;SDS011;10999;51.332;9.458;2023-07-29T00:09:17;8.27;;;2.65;;
21675;SDS011;10999;51.332;9.458;2023-07-29T00:11:43;7.95;;;3.10;;
21675;SDS011;10999;51.332;9.458;2023-07-29T00:14:10;7.80;;;3.40;;
21675;SDS011;10999;51.332;9.458;2023-07-29T00:16:37;9.80;;;3.38;;
21675;SDS011;10999;51.332;9.458;2023-07-29T00:19:05;7.82;;;3.08;;
21675;SDS011;10999;51.332;9.458;2023-07-29T00:21:32;8.82;;;3.60;;
21675;SDS011;10999;51.332;9.458;2023-07-29T00:23:59;7.50;;;3.55;;
21675;SDS011;10999;51.332;9.458;2023-07-29T00:26:27;8.23;;;4.03;;
21675;SDS011;10999;51.332;9.458;2023-07-29T00:28:57;9.57;;;3.97;;
21675;SDS011;10999;51.332;9.458;2023-07-29T00:31:24;9.52;;;4.22;;
21675;SDS011;10999;51.332;9.458;2023-07-29T00:33:51;11.23;;;4.20;;
21675;SDS011;10999;51.332;9.458;2023-07-29T00:36:19;8.35;;;3.65;;
21675;SDS011;10999;51.332;9.458;2023-07-29T00:38:46;7.47;;;3.15;;
21675;SDS011;10999;51.332;9.458;2023-07-29T00:41:13;9.07;;;4.03;;
21675;SDS011;10999;51.332;9.458;2023-07-29T00:43:41;8.35;;;3.63;;
21675;SDS011;10999;51.332;9.458;2023-07-29T00:46:08;11.00;;;4.15;;
21675;SDS011;10999;51.332;9.458;2023-07-29T00:48:36;8.88;;;3.40;;
21675;SDS011;10999;51.332;9.458;2023-07-29T00:51:04;8.77;;;3.92;;
21675;SDS011;10999;51.332;9.458;2023-07-29T00:53:31;8.02;;;4.00;;
21675;SDS011;10999;51.332;9.458;2023-07-29T00:55:58;11.25;;;4.00;;
21675;SDS011;10999;51.332;9.458;2023-07-29T00:58:26;7.82;;;3.67;;
21675;SDS011;10999;51.332;9.458;2023-07-29T01:00:53;9.52;;;4.00;;
21675;SDS011;10999;51.332;9.458;2023-07-29T01:03:20;7.93;;;3.55;;
21675;SDS011;10999;51.332;9.458;2023-07-29T01:05:50;11.50;;;5.47;;
21675;SDS011;10999;51.332;9.458;2023-07-29T01:08:38;9.32;;;3.78;;
21675;SDS011;10999;51.332;9.458;2023-07-29T01:11:41;10.27;;;4.10;;
21675;SDS011;10999;51.332;9.458;2023-07-29T01:14:27;8.68;;;3.33;;
21675;SDS011;10999;51.332;9.458;2023-07-29T01:17:08;6.85;;;3.22;;
21675;SDS011;10999;51.332;9.458;2023-07-29T01:19:48;8.73;;;3.75;;
21675;SDS011;10999;51.332;9.458;2023-07-29T01:22:22;7.82;;;3.13;;
21675;SDS011;10999;51.332;9.458;2023-07-29T01:24:50;6.57;;;3.25;;
21675;SDS011;10999;51.332;9.458;2023-07-29T01:27:17;7.45;;;3.15;;
21675;SDS011;10999;51.332;9.458;2023-07-29T01:29:44;9.40;;;3.15;;
21675;SDS011;10999;51.332;9.458;2023-07-29T01:32:11;8.07;;;3.25;;
21675;SDS011;10999;51.332;9.458;2023-07-29T01:34:47;6.75;;;3.08;;
21675;SDS011;10999;51.332;9.458;2023-07-29T01:37:24;6.22;;;2.88;;
21675;SDS011;10999;51.332;9.458;2023-07-29T01:39:54;6.15;;;2.90;;
21675;SDS011;10999;51.332;9.458;2023-07-29T01:42:25;7.03;;;3.50;;
21675;SDS011;10999;51.332;9.458;2023-07-29T01:44:55;6.57;;;3.30;;
21675;SDS011;10999;51.332;9.458;2023-07-29T01:47:22;6.53;;;2.42;;
21675;SDS011;10999;51.332;9.458;2023-07-29T01:49:49;7.82;;;2.70;;
21675;SDS011;10999;51.332;9.458;2023-07-29T01:52:16;8.18;;;3.05;;
21675;SDS011;10999;51.332;9.458;2023-07-29T01:54:43;8.88;;;3.10;;
21675;SDS011;10999;51.332;9.458;2023-07-29T01:57:10;7.53;;;3.08;;
21675;SDS011;10999;51.332;9.458;2023-07-29T01:59:37;6.65;;;3.00;;
21675;SDS011;10999;51.332;9.458;2023-07-29T02:02:04;7.55;;;3.08;;
21675;SDS011;10999;51.332;9.458;2023-07-29T02:04:31;6.78;;;3.00;;
21675;SDS011;10999;51.332;9.458;2023-07-29T02:06:58;5.45;;;2.63;;
21675;SDS011;10999;51.332;9.458;2023-07-29T02:09:24;6.90;;;2.53;;
21675;SDS011;10999;51.332;9.458;2023-07-29T02:11:52;5.63;;;2.33;;
21675;SDS011;10999;51.332;9.458;2023-07-29T02:14:18;5.88;;;2.65;;
21675;SDS011;10999;51.332;9.458;2023-07-29T02:16:45;7.60;;;2.80;;
21675;SDS011;10999;51.332;9.458;2023-07-29T02:19:12;7.68;;;2.72;;
21675;SDS011;10999;51.332;9.458;2023-07-29T02:21:39;5.15;;;2.30;;
21675;SDS011;10999;51.332;9.458;2023-07-29T02:24:06;6.43;;;2.30;;
21675;SDS011;10999;51.332;9.458;2023-07-29T02:26:33;8.02;;;2.67;;
21675;SDS011;10999;51.332;9.458;2023-07-29T02:29:00;6.68;;;2.30;;
21675;SDS011;10999;51.332;9.458;2023-07-29T02:31:27;6.57;;;2.70;;
21675;SDS011;10999;51.332;9.458;2023-07-29T02:33:54;6.03;;;2.55;;
21675;SDS011;10999;51.332;9.458;2023-07-29T02:36:21;6.57;;;2.70;;
21675;SDS011;10999;51.332;9.458;2023-07-29T02:38:48;7.45;;;2.80;;
21675;SDS011;10999;51.332;9.458;2023-07-29T02:41:15;6.60;;;2.90;;
21675;SDS011;10999;51.332;9.458;2023-07-29T02:43:43;7.25;;;3.30;;
21675;SDS011;10999;51.332;9.458;2023-07-29T02:46:10;9.35;;;3.60;;
21675;SDS011;10999;51.332;9.458;2023-07-29T02:48:36;8.38;;;3.85;;
21675;SDS011;10999;51.332;9.458;2023-07-29T02:51:03;9.90;;;4.28;;
21675;SDS011;10999;51.332;9.458;2023-07-29T02:53:30;10.70;;;4.85;;
21675;SDS011;10999;51.332;9.458;2023-07-29T02:55:57;8.50;;;4.15;;
21675;SDS011;10999;51.332;9.458;2023-07-29T02:58:23;8.88;;;5.05;;
21675;SDS011;10999;51.332;9.458;2023-07-29T03:00:52;10.75;;;5.53;;
21675;SDS011;10999;51.332;9.458;2023-07-29T03:03:19;9.68;;;5.40;;
21675;SDS011;10999;51.332;9.458;2023-07-29T03:05:46;8.63;;;4.78;;
21675;SDS011;10999;51.332;9.458;2023-07-29T03:08:13;10.88;;;4.97;;
21675;SDS011;10999;51.332;9.458;2023-07-29T03:10:40;8.13;;;4.78;;
21675;SDS011;10999;51.332;9.458;2023-07-29T03:13:08;9.43;;;5.47;;
21675;SDS011;10999;51.332;9.458;2023-07-29T03:15:35;10.90;;;5.15;;
21675;SDS011;10999;51.332;9.458;2023-07-29T03:18:02;12.23;;;5.13;;
21675;SDS011;10999;51.332;9.458;2023-07-29T03:20:28;9.07;;;4.72;;
21675;SDS011;10999;51.332;9.458;2023-07-29T03:22:55;9.30;;;4.57;;
21675;SDS011;10999;51.332;9.458;2023-07-29T03:25:22;9.40;;;4.65;;
21675;SDS011;10999;51.332;9.458;2023-07-29T03:27:49;9.38;;;5.22;;
21675;SDS011;10999;51.332;9.458;2023-07-29T03:30:19;8.40;;;4.65;;
21675;SDS011;10999;51.332;9.458;2023-07-29T03:32:47;10.13;;;4.80;;
21675;SDS011;10999;51.332;9.458;2023-07-29T03:35:15;10.93;;;5.40;;
21675;SDS011;10999;51.332;9.458;2023-07-29T03:37:42;8.52;;;4.35;;
21675;SDS011;10999;51.332;9.458;2023-07-29T03:40:10;10.32;;;5.68;;
21675;SDS011;10999;51.332;9.458;2023-07-29T03:42:37;9.98;;;4.97;;
21675;SDS011;10999;51.332;9.458;2023-07-29T03:45:04;9.52;;;5.38;;
21675;SDS011;10999;51.332;9.458;2023-07-29T03:47:31;11.93;;;6.45;;
21675;SDS011;10999;51.332;9.458;2023-07-29T03:49:58;13.73;;;5.78;;
21675;SDS011;10999;51.332;9.458;2023-07-29T03:52:25;12.70;;;6.03;;
21675;SDS011;10999;51.332;9.458;2023-07-29T03:54:52;11.35;;;5.30;;
21675;SDS011;10999;51.332;9.458;2023-07-29T03:57:18;20.88;;;6.68;;
21675;SDS011;10999;51.332;9.458;2023-07-29T03:59:45;10.77;;;5.53;;
21675;SDS011;10999;51.332;9.458;2023-07-29T04:02:12;9.57;;;5.75;;
21675;SDS011;10999;51.332;9.458;2023-07-29T04:04:39;11.13;;;5.45;;
21675;SDS011;10999;51.332;9.458;2023-07-29T04:07:08;11.43;;;6.45;;
21675;SDS011;10999;51.332;9.458;2023-07-29T04:09:35;12.95;;;6.22;;
21675;SDS011;10999;51.332;9.458;2023-07-29T04:12:02;11.38;;;5.22;;
21675;SDS011;10999;51.332;9.458;2023-07-29T04:14:28;11.57;;;6.50;;
21675;SDS011;10999;51.332;9.458;2023-07-29T04:16:55;11.93;;;6.38;;
21675;SDS011;10999;51.332;9.458;2023-07-29T04:19:22;11.38;;;5.60;;
21675;SDS011;10999;51.332;9.458;2023-07-29T04:21:49;10.10;;;5.43;;
21675;SDS011;10999;51.332;9.458;2023-07-29T04:24:18;10.05;;;5.85;;
21675;SDS011;10999;51.332;9.458;2023-07-29T04:26:46;12.35;;;6.88;;
21675;SDS011;10999;51.332;9.458;2023-07-29T04:29:13;13.63;;;7.00;;
21675;SDS011;10999;51.332;9.458;2023-07-29T04:31:40;11.27;;;6.40;;
21675;SDS011;10999;51.332;9.458;2023-07-29T04:34:07;8.52;;;5.00;;
21675;SDS011;10999;51.332;9.458;2023-07-29T04:36:34;9.70;;;5.97;;
21675;SDS011;10999;51.332;9.458;2023-07-29T04:39:01;9.35;;;5.20;;
21675;SDS011;10999;51.332;9.458;2023-07-29T04:41:28;10.68;;;5.82;;
21675;SDS011;10999;51.332;9.458;2023-07-29T04:43:55;9.35;;;5.15;;
21675;SDS011;10999;51.332;9.458;2023-07-29T04:46:22;10.85;;;5.90;;
21675;SDS011;10999;51.332;9.458;2023-07-29T04:48:49;9.43;;;4.95;;
21675;SDS011;10999;51.332;9.458;2023-07-29T04:51:16;10.63;;;5.60;;
21675;SDS011;10999;51.332;9.458;2023-07-29T04:53:42;11.95;;;5.43;;
21675;SDS011;10999;51.332;9.458;2023-07-29T04:56:09;9.77;;;5.05;;
21675;SDS011;10999;51.332;9.458;2023-07-29T04:58:36;10.18;;;5.22;;
21675;SDS011;10999;51.332;9.458;2023-07-29T05:01:03;10.30;;;5.88;;
21675;SDS011;10999;51.332;9.458;2023-07-29T05:03:30;10.15;;;5.78;;
21675;SDS011;10999;51.332;9.458;2023-07-29T05:05:58;10.82;;;6.22;;
21675;SDS011;10999;51.332;9.458;2023-07-29T05:08:28;10.77;;;6.30;;
21675;SDS011;10999;51.332;9.458;2023-07-29T05:10:55;10.60;;;5.88;;
21675;SDS011;10999;51.332;9.458;2023-07-29T05:13:22;9.98;;;5.70;;
21675;SDS011;10999;51.332;9.458;2023-07-29T05:15:49;10.80;;;6.22;;
21675;SDS011;10999;51.332;9.458;2023-07-29T05:18:17;11.48;;;5.30;;
21675;SDS011;10999;51.332;9.458;2023-07-29T05:20:43;9.50;;;5.75;;
21675;SDS011;10999;51.332;9.458;2023-07-29T05:23:10;10.75;;;6.25;;
21675;SDS011;10999;51.332;9.458;2023-07-29T05:25:37;11.70;;;6.30;;
21675;SDS011;10999;51.332;9.458;2023-07-29T05:28:06;11.25;;;6.10;;
21675;SDS011;10999;51.332;9.458;2023-07-29T05:30:32;11.02;;;6.50;;
21675;SDS011;10999;51.332;9.458;2023-07-29T05:33:03;12.90;;;6.18;;
21675;SDS011;10999;51.332;9.458;2023-07-29T05:35:36;10.77;;;5.78;;
21675;SDS011;10999;51.332;9.458;2023-07-29T05:38:03;12.23;;;6.32;;
21675;SDS011;10999;51.332;9.458;2023-07-29T05:40:32;10.68;;;6.63;;
21675;SDS011;10999;51.332;9.458;2023-07-29T05:42:59;9.90;;;5.85;;
21675;SDS011;10999;51.332;9.458;2023-07-29T05:45:26;15.15;;;6.30;;
21675;SDS011;10999;51.332;9.458;2023-07-29T05:47:53;10.10;;;6.10;;
21675;SDS011;10999;51.332;9.458;2023-07-29T05:50:20;12.93;;;6.47;;
21675;SDS011;10999;51.332;9.458;2023-07-29T05:52:47;10.88;;;5.75;;
21675;SDS011;10999;51.332;9.458;2023-07-29T05:55:14;9.38;;;5.70;;
21675;SDS011;10999;51.332;9.458;2023-07-29T05:57:41;10.77;;;5.88;;
21675;SDS011;10999;51.332;9.458;2023-07-29T06:00:09;9.68;;;5.80;;
21675;SDS011;10999;51.332;9.458;2023-07-29T06:02:37;11.48;;;6.43;;
21675;SDS011;10999;51.332;9.458;2023-07-29T06:05:04;10.73;;;5.72;;
21675;SDS011;10999;51.332;9.458;2023-07-29T06:07:31;11.73;;;6.57;;
21675;SDS011;10999;51.332;9.458;2023-07-29T06:10:00;9.70;;;5.72;;
21675;SDS011;10999;51.332;9.458;2023-07-29T06:12:26;11.02;;;5.95;;
21675;SDS011;10999;51.332;9.458;2023-07-29T06:14:53;13.18;;;7.00;;
21675;SDS011;10999;51.332;9.458;2023-07-29T06:17:20;11.27;;;6.53;;
21675;SDS011;10999;51.332;9.458;2023-07-29T06:19:47;11.73;;;6.47;;
21675;SDS011;10999;51.332;9.458;2023-07-29T06:22:14;10.40;;;6.22;;
21675;SDS011;10999;51.332;9.458;2023-07-29T06:24:40;11.55;;;6.53;;
21675;SDS011;10999;51.332;9.458;2023-07-29T06:27:07;10.93;;;6.03;;
21675;SDS011;10999;51.332;9.458;2023-07-29T06:29:34;9.70;;;5.90;;
21675;SDS011;10999;51.332;9.458;2023-07-29T06:32:01;12.43;;;6.30;;
21675;SDS011;10999;51.332;9.458;2023-07-29T06:34:28;10.60;;;6.35;;
21675;SDS011;10999;51.332;9.458;2023-07-29T06:36:55;14.35;;;6.00;;
21675;SDS011;10999;51.332;9.458;2023-07-29T06:39:21;12.25;;;6.13;;
21675;SDS011;10999;51.332;9.458;2023-07-29T06:41:48;11.32;;;5.97;;
21675;SDS011;10999;51.332;9.458;2023-07-29T06:44:15;12.45;;;6.78;;
21675;SDS011;10999;51.332;9.458;2023-07-29T06:46:42;10.45;;;5.97;;
21675;SDS011;10999;51.332;9.458;2023-07-29T06:49:09;13.00;;;5.57;;
21675;SDS011;10999;51.332;9.458;2023-07-29T06:51:36;11.15;;;6.00;;
21675;SDS011;10999;51.332;9.458;2023-07-29T06:54:03;10.43;;;5.85;;
21675;SDS011;10999;51.332;9.458;2023-07-29T06:56:30;10.15;;;5.65;;
21675;SDS011;10999;51.332;9.458;2023-07-29T06:58:56;9.68;;;5.85;;
21675;SDS011;10999;51.332;9.458;2023-07-29T07:01:23;9.95;;;5.82;;
21675;SDS011;10999;51.332;9.458;2023-07-29T07:03:50;11.75;;;5.90;;
21675;SDS011;10999;51.332;9.458;2023-07-29T07:06:21;9.82;;;5.43;;
21675;SDS011;10999;51.332;9.458;2023-07-29T07:08:48;10.35;;;5.57;;
21675;SDS011;10999;51.332;9.458;2023-07-29T07:11:16;9.13;;;5.40;;
21675;SDS011;10999;51.332;9.458;2023-07-29T07:13:42;9.25;;;5.30;;
21675;SDS011;10999;51.332;9.458;2023-07-29T07:16:09;9.80;;;5.20;;
21675;SDS011;10999;51.332;9.458;2023-07-29T07:18:36;8.90;;;4.72;;
21675;SDS011;10999;51.332;9.458;2023-07-29T07:21:03;10.18;;;5.35;;
21675;SDS011;10999;51.332;9.458;2023-07-29T07:23:30;8.02;;;4.45;;
21675;SDS011;10999;51.332;9.458;2023-07-29T07:25:57;9.30;;;5.18;;
21675;SDS011;10999;51.332;9.458;2023-07-29T07:28:23;8.00;;;4.50;;
21675;SDS011;10999;51.332;9.458;2023-07-29T07:30:50;8.95;;;4.70;;
21675;SDS011;10999;51.332;9.458;2023-07-29T07:33:17;9.27;;;5.25;;
21675;SDS011;10999;51.332;9.458;2023-07-29T07:35:44;9.35;;;5.20;;
21675;SDS011;10999;51.332;9.458;2023-07-29T07:38:11;9.95;;;5.13;;
21675;SDS011;10999;51.332;9.458;2023-07-29T07:40:38;10.02;;;5.43;;
21675;SDS011;10999;51.332;9.458;2023-07-29T07:43:05;8.50;;;4.75;;
21675;SDS011;10999;51.332;9.458;2023-07-29T07:45:32;8.32;;;4.70;;
21675;SDS011;10999;51.332;9.458;2023-07-29T07:47:59;8.93;;;4.63;;
21675;SDS011;10999;51.332;9.458;2023-07-29T07:50:28;8.13;;;4.72;;
21675;SDS011;10999;51.332;9.458;2023-07-29T07:52:56;9.00;;;5.00;;
21675;SDS011;10999;51.332;9.458;2023-07-29T07:55:23;9.50;;;4.88;;
21675;SDS011;10999;51.332;9.458;2023-07-29T07:57:50;8.13;;;4.82;;
21675;SDS011;10999;51.332;9.458;2023-07-29T08:00:16;9.32;;;4.53;;
21675;SDS011;10999;51.332;9.458;2023-07-29T08:02:45;8.07;;;4.57;;
21675;SDS011;10999;51.332;9.458;2023-07-29T08:05:12;8.02;;;4.28;;
21675;SDS011;10999;51.332;9.458;2023-07-29T08:07:39;9.50;;;4.90;;
21675;SDS011;10999;51.332;9.458;2023-07-29T08:10:06;8.82;;;4.50;;
21675;SDS011;10999;51.332;9.458;2023-07-29T08:12:33;8.65;;;4.25;;
21675;SDS011;10999;51.332;9.458;2023-07-29T08:15:00;8.48;;;3.90;;
21675;SDS011;10999;51.332;9.458;2023-07-29T08:17:27;8.77;;;4.53;;
21675;SDS011;10999;51.332;9.458;2023-07-29T08:19:53;8.25;;;3.80;;
21675;SDS011;10999;51.332;9.458;2023-07-29T08:22:20;9.13;;;4.35;;
21675;SDS011;10999;51.332;9.458;2023-07-29T08:24:47;8.45;;;4.03;;
21675;SDS011;10999;51.332;9.458;2023-07-29T08:27:14;7.47;;;3.95;;
21675;SDS011;10999;51.332;9.458;2023-07-29T08:29:40;8.10;;;3.88;;
21675;SDS011;10999;51.332;9.458;2023-07-29T08:32:07;6.25;;;3.33;;
21675;SDS011;10999;51.332;9.458;2023-07-29T08:34:35;7.55;;;3.25;;
21675;SDS011;10999;51.332;9.458;2023-07-29T08:37:02;7.38;;;3.50;;
21675;SDS011;10999;51.332;9.458;2023-07-29T08:39:28;6.88;;;3.70;;
21675;SDS011;10999;51.332;9.458;2023-07-29T08:44:38;7.05;;;3.45;;
21675;SDS011;10999;51.332;9.458;2023-07-29T08:47:07;4.22;;;2.08;;
21675;SDS011;10999;51.332;9.458;2023-07-29T08:49:35;4.97;;;2.28;;
21675;SDS011;10999;51.332;9.458;2023-07-29T08:52:03;5.72;;;2.83;;
21675;SDS011;10999;51.332;9.458;2023-07-29T08:54:31;4.05;;;2.03;;
21675;SDS011;10999;51.332;9.458;2023-07-29T08:56:58;4.38;;;2.20;;
21675;SDS011;10999;51.332;9.458;2023-07-29T08:59:26;5.60;;;2.08;;
21675;SDS011;10999;51.332;9.458;2023-07-29T09:01:55;4.63;;;2.25;;
21675;SDS011;10999;51.332;9.458;2023-07-29T09:04:23;4.18;;;1.90;;
21675;SDS011;10999;51.332;9.458;2023-07-29T09:06:51;5.43;;;2.20;;
21675;SDS011;10999;51.332;9.458;2023-07-29T09:09:20;4.45;;;2.15;;
21675;SDS011;10999;51.332;9.458;2023-07-29T09:11:47;5.72;;;3.20;;
21675;SDS011;10999;51.332;9.458;2023-07-29T09:14:14;4.70;;;2.33;;
21675;SDS011;10999;51.332;9.458;2023-07-29T09:16:41;4.50;;;2.45;;
21675;SDS011;10999;51.332;9.458;2023-07-29T09:19:08;4.35;;;1.90;;
21675;SDS011;10999;51.332;9.458;2023-07-29T09:21:38;3.17;;;1.70;;
21675;SDS011;10999;51.332;9.458;2023-07-29T09:24:06;4.20;;;1.95;;
21675;SDS011;10999;51.332;9.458;2023-07-29T09:26:34;4.63;;;1.83;;
21675;SDS011;10999;51.332;9.458;2023-07-29T09:29:02;4.65;;;2.08;;
21675;SDS011;10999;51.332;9.458;2023-07-29T09:31:29;5.30;;;2.20;;
21675;SDS011;10999;51.332;9.458;2023-07-29T09:33:57;4.55;;;1.63;;
21675;SDS011;10999;51.332;9.458;2023-07-29T09:38:57;6.10;;;2.03;;
21675;SDS011;10999;51.332;9.458;2023-07-29T09:41:24;5.70;;;2.70;;
21675;SDS011;10999;51.332;9.458;2023-07-29T09:43:57;5.55;;;2.80;;
21675;SDS011;10999;51.332;9.458;2023-07-29T09:49:04;4.32;;;1.88;;
21675;SDS011;10999;51.332;9.458;2023-07-29T09:51:37;4.28;;;2.25;;
21675;SDS011;10999;51.332;9.458;2023-07-29T09:54:05;5.10;;;2.33;;
21675;SDS011;10999;51.332;9.458;2023-07-29T09:56:32;5.07;;;1.98;;
21675;SDS011;10999;51.332;9.458;2023-07-29T09:59:00;5.45;;;2.45;;
21675;SDS011;10999;51.332;9.458;2023-07-29T10:01:30;4.72;;;2.22;;
21675;SDS011;10999;51.332;9.458;2023-07-29T10:03:58;5.32;;;2.50;;
21675;SDS011;10999;51.332;9.458;2023-07-29T10:06:28;6.43;;;2.20;;
21675;SDS011;10999;51.332;9.458;2023-07-29T10:08:56;4.57;;;2.30;;
21675;SDS011;10999;51.332;9.458;2023-07-29T10:11:23;3.05;;;1.73;;
21675;SDS011;10999;51.332;9.458;2023-07-29T10:13:51;4.25;;;2.13;;
21675;SDS011;10999;51.332;9.458;2023-07-29T10:16:34;5.32;;;2.20;;
21675;SDS011;10999;51.332;9.458;2023-07-29T10:19:03;5.35;;;2.63;;
21675;SDS011;10999;51.332;9.458;2023-07-29T10:21:31;5.53;;;2.55;;
21675;SDS011;10999;51.332;9.458;2023-07-29T10:23:59;5.13;;;2.30;;
21675;SDS011;10999;51.332;9.458;2023-07-29T10:26:30;5.65;;;2.05;;
21675;SDS011;10999;51.332;9.458;2023-07-29T10:29:00;5.03;;;2.10;;
21675;SDS011;10999;51.332;9.458;2023-07-29T10:31:35;4.95;;;2.40;;
21675;SDS011;10999;51.332;9.458;2023-07-29T10:34:03;4.65;;;2.30;;
21675;SDS011;10999;51.332;9.458;2023-07-29T10:36:30;6.47;;;2.33;;
21675;SDS011;10999;51.332;9.458;2023-07-29T10:38:57;4.22;;;2.38;;
21675;SDS011;10999;51.332;9.458;2023-07-29T10:41:37;5.38;;;2.50;;
21675;SDS011;10999;51.332;9.458;2023-07-29T10:47:25;5.25;;;2.63;;
21675;SDS011;10999;51.332;9.458;2023-07-29T10:49:55;5.97;;;2.67;;
21675;SDS011;10999;51.332;9.458;2023-07-29T10:55:02;6.03;;;3.17;;
21675;SDS011;10999;51.332;9.458;2023-07-29T10:57:31;6.47;;;2.10;;
21675;SDS011;10999;51.332;9.458;2023-07-29T10:59:59;6.43;;;2.63;;
21675;SDS011;10999;51.332;9.458;2023-07-29T11:02:30;6.47;;;2.97;;
21675;SDS011;10999;51.332;9.458;2023-07-29T11:04:59;6.53;;;2.60;;
21675;SDS011;10999;51.332;9.458;2023-07-29T11:07:31;6.13;;;2.97;;
21675;SDS011;10999;51.332;9.458;2023-07-29T11:10:13;4.43;;;2.03;;
21675;SDS011;10999;51.332;9.458;2023-07-29T11:15:15;5.07;;;2.55;;
21675;SDS011;10999;51.332;9.458;2023-07-29T11:17:51;6.28;;;3.10;;
21675;SDS011;10999;51.332;9.458;2023-07-29T11:20:20;7.75;;;3.15;;
21675;SDS011;10999;51.332;9.458;2023-07-29T11:22:49;5.35;;;2.97;;
21675;SDS011;10999;51.332;9.458;2023-07-29T11:25:16;7.80;;;2.60;;
21675;SDS011;10999;51.332;9.458;2023-07-29T11:27:44;4.90;;;2.50;;
21675;SDS011;10999;51.332;9.458;2023-07-29T11:30:13;5.63;;;2.40;;
21675;SDS011;10999;51.332;9.458;2023-07-29T11:32:41;6.82;;;2.28;;
21675;SDS011;10999;51.332;9.458;2023-07-29T11:35:12;5.72;;;2.70;;
21675;SDS011;10999;51.332;9.458;2023-07-29T11:37:41;5.70;;;2.80;;
21675;SDS011;10999;51.332;9.458;2023-07-29T11:40:12;5.50;;;2.88;;
21675;SDS011;10999;51.332;9.458;2023-07-29T11:42:47;5.15;;;2.30;;
21675;SDS011;10999;51.332;9.458;2023-07-29T11:45:17;5.68;;;2.63;;
21675;SDS011;10999;51.332;9.458;2023-07-29T11:47:45;5.18;;;2.55;;
21675;SDS011;10999;51.332;9.458;2023-07-29T11:50:13;5.43;;;2.60;;
21675;SDS011;10999;51.332;9.458;2023-07-29T11:52:42;4.68;;;2.35;;
21675;SDS011;10999;51.332;9.458;2023-07-29T11:55:11;4.35;;;2.30;;
21675;SDS011;10999;51.332;9.458;2023-07-29T11:57:39;4.45;;;2.42;;
21675;SDS011;10999;51.332;9.458;2023-07-29T12:00:06;4.03;;;2.00;;
21675;SDS011;10999;51.332;9.458;2023-07-29T12:02:39;3.92;;;2.05;;
21675;SDS011;10999;51.332;9.458;2023-07-29T12:05:10;4.28;;;1.90;;
21675;SDS011;10999;51.332;9.458;2023-07-29T12:07:39;3.92;;;1.88;;
21675;SDS011;10999;51.332;9.458;2023-07-29T12:10:06;3.63;;;1.90;;
21675;SDS011;10999;51.332;9.458;2023-07-29T12:12:33;3.97;;;1.73;;
21675;SDS011;10999;51.332;9.458;2023-07-29T12:15:10;3.65;;;1.70;;
21675;SDS011;10999;51.332;9.458;2023-07-29T12:17:40;4.65;;;1.90;;
21675;SDS011;10999;51.332;9.458;2023-07-29T12:20:08;3.88;;;1.92;;
21675;SDS011;10999;51.332;9.458;2023-07-29T12:22:38;4.05;;;1.63;;
21675;SDS011;10999;51.332;9.458;2023-07-29T12:25:05;4.18;;;1.73;;
21675;SDS011;10999;51.332;9.458;2023-07-29T12:27:32;3.45;;;1.60;;
21675;SDS011;10999;51.332;9.458;2023-07-29T12:30:00;3.15;;;1.77;;
21675;SDS011;10999;51.332;9.458;2023-07-29T12:32:30;3.53;;;1.58;;
21675;SDS011;10999;51.332;9.458;2023-07-29T12:34:57;2.75;;;1.40;;
21675;SDS011;10999;51.332;9.458;2023-07-29T12:37:30;4.13;;;1.50;;
21675;SDS011;10999;51.332;9.458;2023-07-29T12:39:59;3.67;;;1.70;;
21675;SDS011;10999;51.332;9.458;2023-07-29T12:42:25;4.47;;;1.98;;
21675;SDS011;10999;51.332;9.458;2023-07-29T12:44:52;3.92;;;1.80;;
21675;SDS011;10999;51.332;9.458;2023-07-29T12:47:19;3.40;;;1.40;;
21675;SDS011;10999;51.332;9.458;2023-07-29T12:49:46;3.90;;;1.58;;
21675;SDS011;10999;51.332;9.458;2023-07-29T12:52:13;3.03;;;1.63;;
21675;SDS011;10999;51.332;9.458;2023-07-29T12:54:40;3.85;;;1.60;;
21675;SDS011;10999;51.332;9.458;2023-07-29T12:57:07;3.60;;;1.30;;
21675;SDS011;10999;51.332;9.458;2023-07-29T12:59:34;3.72;;;1.60;;
21675;SDS011;10999;51.332;9.458;2023-07-29T13:02:01;4.15;;;1.52;;
21675;SDS011;10999;51.332;9.458;2023-07-29T13:04:30;3.78;;;1.70;;
21675;SDS011;10999;51.332;9.458;2023-07-29T13:06:57;5.05;;;1.60;;
21675;SDS011;10999;51.332;9.458;2023-07-29T13:09:25;2.67;;;1.35;;
21675;SDS011;10999;51.332;9.458;2023-07-29T13:11:52;2.97;;;1.40;;
21675;SDS011;10999;51.332;9.458;2023-07-29T13:14:19;3.63;;;1.48;;
21675;SDS011;10999;51.332;9.458;2023-07-29T13:16:46;3.47;;;1.40;;
21675;SDS011;10999;51.332;9.458;2023-07-29T13:19:12;2.63;;;1.30;;
21675;SDS011;10999;51.332;9.458;2023-07-29T13:21:39;5.38;;;1.40;;
21675;SDS011;10999;51.332;9.458;2023-07-29T13:24:06;2.33;;;1.30;;
21675;SDS011;10999;51.332;9.458;2023-07-29T13:26:33;3.13;;;1.13;;
21675;SDS011;10999;51.332;9.458;2023-07-29T13:29:00;3.53;;;1.30;;
21675;SDS011;10999;51.332;9.458;2023-07-29T13:31:27;3.35;;;1.50;;
21675;SDS011;10999;51.332;9.458;2023-07-29T13:33:54;2.88;;;1.30;;
21675;SDS011;10999;51.332;9.458;2023-07-29T13:36:21;2.67;;;1.17;;
21675;SDS011;10999;51.332;9.458;2023-07-29T13:38:47;3.40;;;1.50;;
21675;SDS011;10999;51.332;9.458;2023-07-29T13:41:14;2.60;;;1.17;;
21675;SDS011;10999;51.332;9.458;2023-07-29T13:43:41;4.18;;;1.40;;
21675;SDS011;10999;51.332;9.458;2023-07-29T13:46:08;3.85;;;1.33;;
21675;SDS011;10999;51.332;9.458;2023-07-29T13:48:35;3.50;;;1.10;;
21675;SDS011;10999;51.332;9.458;2023-07-29T13:51:02;3.17;;;1.27;;
21675;SDS011;10999;51.332;9.458;2023-07-29T13:53:29;3.67;;;1.35;;
21675;SDS011;10999;51.332;9.458;2023-07-29T13:55:56;3.53;;;1.30;;
21675;SDS011;10999;51.332;9.458;2023-07-29T13:58:23;2.65;;;1.20;;
21675;SDS011;10999;51.332;9.458;2023-07-29T14:00:49;2.50;;;1.13;;
21675;SDS011;10999;51.332;9.458;2023-07-29T14:03:16;3.78;;;1.30;;
21675;SDS011;10999;51.332;9.458;2023-07-29T14:05:43;3.13;;;1.20;;
21675;SDS011;10999;51.332;9.458;2023-07-29T14:08:10;2.90;;;1.30;;
21675;SDS011;10999;51.332;9.458;2023-07-29T14:10:37;2.13;;;1.02;;
21675;SDS011;10999;51.332;9.458;2023-07-29T14:13:03;2.90;;;1.10;;
21675;SDS011;10999;51.332;9.458;2023-07-29T14:15:30;2.45;;;1.00;;
21675;SDS011;10999;51.332;9.458;2023-07-29T14:17:58;3.05;;;1.10;;
21675;SDS011;10999;51.332;9.458;2023-07-29T14:20:25;12.98;;;2.10;;
21675;SDS011;10999;51.332;9.458;2023-07-29T14:22:52;3.92;;;1.40;;
21675;SDS011;10999;51.332;9.458;2023-07-29T14:25:19;2.97;;;1.20;;
21675;SDS011;10999;51.332;9.458;2023-07-29T14:27:46;2.92;;;1.38;;
21675;SDS011;10999;51.332;9.458;2023-07-29T14:30:13;3.22;;;1.33;;
21675;SDS011;10999;51.332;9.458;2023-07-29T14:32:40;3.97;;;1.10;;
21675;SDS011;10999;51.332;9.458;2023-07-29T14:35:07;3.22;;;1.33;;
21675;SDS011;10999;51.332;9.458;2023-07-29T14:37:34;2.97;;;1.20;;
21675;SDS011;10999;51.332;9.458;2023-07-29T14:40:01;2.92;;;1.13;;
21675;SDS011;10999;51.332;9.458;2023-07-29T14:42:29;2.92;;;1.20;;
21675;SDS011;10999;51.332;9.458;2023-07-29T14:44:58;3.10;;;1.40;;
21675;SDS011;10999;51.332;9.458;2023-07-29T14:47:25;3.22;;;1.33;;
21675;SDS011;10999;51.332;9.458;2023-07-29T14:49:51;4.38;;;1.42;;
21675;SDS011;10999;51.332;9.458;2023-07-29T14:52:18;3.72;;;1.48;;
21675;SDS011;10999;51.332;9.458;2023-07-29T14:54:45;3.30;;;1.48;;
21675;SDS011;10999;51.332;9.458;2023-07-29T14:57:12;2.95;;;1.30;;
21675;SDS011;10999;51.332;9.458;2023-07-29T14:59:39;2.83;;;1.40;;
21675;SDS011;10999;51.332;9.458;2023-07-29T15:02:06;3.05;;;1.40;;
21675;SDS011;10999;51.332;9.458;2023-07-29T15:04:33;3.20;;;1.20;;
21675;SDS011;10999;51.332;9.458;2023-07-29T15:07:00;4.18;;;1.40;;